EGGW/LTN METAR and TAF weather

Enter ICAO airport designator
Station Type Date Time Source
EGGW METAR 2021/03/03 02:20 UTC NOAA

EGGW 030220Z AUTO 03003KT 0400 R07/0900 FG VV/// 04/03 Q1028


Station Type Date Time Source
EGGW Decoded METAR 2021/03/03 02:20 UTC NOAA

Luton Airport , United Kingdom (EGGW) 51-52N 000-22W
Mar 02, 2021 - 09:20 PM EST / 2021.03.03 0220 UTC
Wind: from the NNE (030 degrees) at 3 MPH (3 KT):0
Visibility: less than 1 mile:0
Sky conditions: obscured
Weather: fog
Temperature: 39 F (4 C)
Dew Point: 37 F (3 C)
Relative Humidity: 93%
Pressure (altimeter): 30.36 in. Hg (1028 hPa)
ob: EGGW 030220Z AUTO 03003KT 0400 R07/0900 FG VV/// 04/03 Q1028
cycle: 2

Station Type Date Time Source
EGGW TAF 2021/03/02 21:27 UTC NOAA

TAF
AMD EGGW 022120Z 0221/0318 04006KT 3000 BR FEW005
BECMG 0221/0223 BKN003
BECMG 0223/0301 0300 FG OVC000
BECMG 0309/0312 5000 HZ BKN006
BECMG 0312/0315 9999 NSW SCT010
TEMPO 0315/0318 6000 SHRA BKN008

Example: see airport list